Elk City, Idaho
Current Conditions -  °F | °C
As of 2:15 AM on Wednesday 26 Nov 2014 (Local Time) from KGIC Reporting Station
Overcast Overcast  
Wind Chill: 50°   Ceiling: 3900
Heat Index: 50°   Visibility: 10mi
Dew Point: 40°   Wind: 20mph
Humidity: 69%   Direction: 240°WSW
Pressure: 30.21"   Gusts: 28mph
Location:  45.83°N, 115.44°W
Report Text: KGIC 261015Z AUTO 24017G24KT 10SM OVC039 10/05 A3021 RMK AO1 P0001 T01000046
Loading
Personal Weather Stations






























Interactive Weather Map New forecast layout! Learn more

10-Day Weather Forecast

Advertisements
Track Severe Weather on mobile